createdAt,value
2023-12-03T00:01:00.972Z,73.24
2023-12-03T00:11:04.935Z,72.68
2023-12-03T00:21:10.332Z,73.63
2023-12-03T00:31:13.903Z,73.84
2023-12-03T00:41:18.154Z,73.85
2023-12-03T00:51:21.746Z,74.29
2023-12-03T01:01:26.107Z,74.82
2023-12-03T01:11:35.503Z,73.25
2023-12-03T01:21:41.027Z,74.12
2023-12-03T01:31:43.981Z,75.01
2023-12-03T01:41:48.669Z,75.11
2023-12-03T01:51:51.886Z,75.08
2023-12-03T02:01:56.277Z,74.66
2023-12-03T02:11:59.427Z,75.15
2023-12-03T02:22:03.862Z,74.82
2023-12-03T02:32:08.633Z,75.13
2023-12-03T02:42:11.497Z,76.24
2023-12-03T02:52:15.806Z,76.00
2023-12-03T03:02:18.727Z,76.61
2023-12-03T03:12:23.023Z,75.83
2023-12-03T03:22:25.914Z,76.17
2023-12-03T03:32:30.318Z,76.80
2023-12-03T03:42:33.240Z,76.72
2023-12-03T03:52:38.717Z,77.46
2023-12-03T04:02:41.702Z,77.80
2023-12-03T04:12:45.952Z,76.88
2023-12-03T04:22:48.932Z,78.02
2023-12-03T04:32:53.233Z,78.00
2023-12-03T04:42:56.218Z,79.17
2023-12-03T04:53:00.592Z,79.10
2023-12-03T05:03:03.518Z,79.26
2023-12-03T05:13:07.820Z,79.90
2023-12-03T05:23:11.443Z,80.68
2023-12-03T05:33:16.022Z,80.46
2023-12-03T05:43:19.086Z,81.12
2023-12-03T05:53:23.312Z,80.86
2023-12-03T06:03:26.211Z,81.38
2023-12-03T06:13:30.749Z,81.48
2023-12-03T06:23:33.621Z,82.25
2023-12-03T06:33:38.310Z,83.13
2023-12-03T06:43:41.308Z,82.72
2023-12-03T06:53:45.636Z,82.95
2023-12-03T07:03:48.639Z,82.52
2023-12-03T07:13:52.992Z,81.75
2023-12-03T07:23:55.966Z,81.85
2023-12-03T07:34:00.671Z,81.36
2023-12-03T07:44:03.602Z,80.11
2023-12-03T07:54:08.025Z,79.47
2023-12-03T08:04:11.121Z,78.80
2023-12-03T08:14:15.637Z,77.37
2023-12-03T08:24:18.525Z,76.51
2023-12-03T08:34:22.994Z,75.39
2023-12-03T08:44:26.978Z,74.75
2023-12-03T08:54:32.023Z,73.76
2023-12-03T09:04:34.960Z,73.74
2023-12-03T09:14:39.322Z,72.12
2023-12-03T09:24:42.305Z,70.85
2023-12-03T09:34:46.676Z,70.18
2023-12-03T09:44:53.846Z,69.35
2023-12-03T09:54:59.878Z,69.23
2023-12-03T10:05:03.220Z,67.21
2023-12-03T10:15:09.951Z,65.48
2023-12-03T10:25:13.407Z,66.12
2023-12-03T10:35:19.721Z,65.31
2023-12-03T10:45:25.098Z,64.51
2023-12-03T10:55:30.021Z,63.45
2023-12-03T11:05:35.623Z,63.89
2023-12-03T11:15:40.259Z,63.99
2023-12-03T11:25:48.318Z,62.09
2023-12-03T11:35:53.064Z,63.15
2023-12-03T11:45:56.316Z,62.54
2023-12-03T11:56:00.914Z,62.76
2023-12-03T12:06:03.837Z,59.73
2023-12-03T12:16:12.216Z,55.97
2023-12-03T12:26:15.576Z,56.30
2023-12-03T12:36:20.021Z,57.67
2023-12-03T12:46:23.400Z,57.19
2023-12-03T12:56:27.771Z,57.69
2023-12-03T13:06:33.292Z,57.43
2023-12-03T13:16:38.184Z,54.39
2023-12-03T13:26:41.567Z,47.92
2023-12-03T13:36:45.845Z,48.86
2023-12-03T13:46:48.735Z,46.04
2023-12-03T13:56:52.993Z,46.54
2023-12-03T14:06:55.939Z,43.09
2023-12-03T14:17:01.368Z,42.36
2023-12-03T14:27:04.620Z,41.31
2023-12-03T14:37:09.014Z,43.00
2023-12-03T14:47:12.009Z,48.79
2023-12-03T14:57:16.234Z,52.56
2023-12-03T15:07:19.308Z,55.40
2023-12-03T15:17:23.563Z,57.15
2023-12-03T15:27:26.803Z,59.01
2023-12-03T15:37:31.198Z,60.35
2023-12-03T15:47:34.828Z,62.80
2023-12-03T15:57:39.418Z,63.74
2023-12-03T16:07:43.538Z,65.23
2023-12-03T16:17:48.027Z,65.50
2023-12-03T16:27:51.081Z,65.65
2023-12-03T16:37:55.911Z,66.61
2023-12-03T16:48:00.494Z,68.66
2023-12-03T16:58:05.150Z,68.71
2023-12-03T17:08:08.061Z,70.53
2023-12-03T17:18:12.490Z,71.27
2023-12-03T17:28:17.593Z,70.19
2023-12-03T17:38:23.104Z,70.52
2023-12-03T17:48:26.046Z,70.53
2023-12-03T17:58:30.619Z,70.99
2023-12-03T18:08:33.479Z,69.93
2023-12-03T18:18:37.892Z,71.26
2023-12-03T18:28:42.300Z,71.57
2023-12-03T18:38:46.795Z,71.61
2023-12-03T18:48:50.026Z,71.95
2023-12-03T18:58:54.391Z,72.34
2023-12-03T19:08:57.668Z,73.04
2023-12-03T19:19:02.118Z,72.71
2023-12-03T19:29:05.361Z,73.66
2023-12-03T19:39:09.678Z,74.20
2023-12-03T19:49:12.592Z,73.75
2023-12-03T19:59:17.015Z,74.28
2023-12-03T20:09:20.029Z,74.43
2023-12-03T20:19:26.970Z,75.35
2023-12-03T20:29:31.169Z,75.53
2023-12-03T20:39:35.978Z,75.30
2023-12-03T20:49:39.106Z,75.55
2023-12-03T20:59:43.615Z,76.15
2023-12-03T21:09:46.716Z,76.12
2023-12-03T21:19:51.526Z,75.74
2023-12-03T21:29:54.778Z,75.75
2023-12-03T21:40:03.126Z,75.87
2023-12-03T21:50:07.550Z,75.97
2023-12-03T22:00:16.246Z,76.35
2023-12-03T22:10:19.674Z,76.56
2023-12-03T22:20:24.161Z,75.50
2023-12-03T22:30:27.094Z,76.06
2023-12-03T22:40:31.504Z,75.24
2023-12-03T22:50:34.769Z,75.26
2023-12-03T23:00:39.287Z,74.95
2023-12-03T23:10:42.580Z,74.85
2023-12-03T23:20:46.896Z,75.15
2023-12-03T23:30:50.172Z,75.22
2023-12-03T23:40:54.492Z,75.93
2023-12-03T23:50:57.638Z,76.35
